Time;durP1;ratioP1;P1;durP2;ratioP2;P2;SDS_P1;SDS_P2;PMS_P1;PMS_P2;Temp;Humidity;BMP_temperature;BMP_pressure;BME280_temperature;BME280_humidity;BME280_pressure;Samples;Min_cycle;Max_cycle;Signal;HPM_P1;HPM_P2
2024/03/03 00:01:43;;;;;;;3.83;3.25;;;;;;;15.21;46.92;99809.00;4889673;28;115032;-86
2024/03/03 00:04:10;;;;;;;4.97;3.03;;;;;;;15.21;46.71;99814.31;4889385;28;124298;-86
2024/03/03 00:06:38;;;;;;;4.30;3.13;;;;;;;15.21;46.78;99811.66;4909933;28;124775;-86
2024/03/03 00:09:08;;;;;;;4.25;3.10;;;;;;;15.20;46.84;99804.66;4906884;28;114183;-86
2024/03/03 00:11:35;;;;;;;5.65;3.50;;;;;;;15.18;46.65;99809.22;4894671;28;114429;-87
2024/03/03 00:14:03;;;;;;;5.38;3.30;;;;;;;15.18;46.77;99798.56;4906924;28;124254;-87
2024/03/03 00:16:33;;;;;;;6.45;3.50;;;;;;;15.15;46.71;99798.81;4895644;28;124727;-86
2024/03/03 00:19:00;;;;;;;5.13;2.92;;;;;;;15.14;46.64;99798.00;4908929;28;113672;-86
2024/03/03 00:21:28;;;;;;;4.20;3.10;;;;;;;15.11;46.73;99797.38;4889138;28;114141;-86
2024/03/03 00:23:55;;;;;;;6.45;3.45;;;;;;;15.09;46.65;99799.34;4889331;28;124537;-86
2024/03/03 00:26:22;;;;;;;6.00;3.40;;;;;;;15.05;46.71;99798.72;4896604;28;124070;-86
2024/03/03 00:28:49;;;;;;;5.18;3.38;;;;;;;15.03;46.72;99797.13;4910348;28;115589;-85
2024/03/03 00:31:18;;;;;;;5.65;4.10;;;;;;;15.01;46.87;99801.75;4903926;28;115181;-86
2024/03/03 00:33:46;;;;;;;5.05;3.70;;;;;;;14.98;46.88;99793.03;4891629;28;124517;-86
2024/03/03 00:36:14;;;;;;;4.78;3.72;;;;;;;14.95;47.08;99787.94;4906746;28;122595;-86
2024/03/03 00:38:41;;;;;;;5.07;3.55;;;;;;;14.93;46.98;99787.22;4893989;28;113978;-86
2024/03/03 00:41:09;;;;;;;4.50;3.35;;;;;;;14.91;46.97;99791.81;4895751;28;113554;-87
2024/03/03 00:43:37;;;;;;;5.45;3.95;;;;;;;14.88;47.18;99786.75;4891155;28;124934;-87
2024/03/03 00:46:05;;;;;;;6.72;3.80;;;;;;;14.86;47.24;99788.69;4905975;28;125814;-88
2024/03/03 00:48:32;;;;;;;7.20;3.92;;;;;;;14.84;47.32;99795.94;4887076;28;112411;-86
2024/03/03 00:50:59;;;;;;;6.47;3.92;;;;;;;14.83;47.14;99788.94;4910531;28;113711;-85
2024/03/03 00:53:27;;;;;;;4.88;3.90;;;;;;;14.81;47.29;99785.53;4904096;28;124103;-86
2024/03/03 00:55:54;;;;;;;6.20;4.05;;;;;;;14.79;47.43;99771.50;4896297;28;124961;-87
2024/03/03 00:58:21;;;;;;;5.68;3.58;;;;;;;14.78;47.32;99781.28;4890483;28;115733;-87
2024/03/03 01:00:49;;;;;;;5.68;3.75;;;;;;;14.77;47.44;99773.44;4894183;28;114551;-88
2024/03/03 01:03:16;;;;;;;7.15;4.10;;;;;;;14.76;47.76;99771.72;4907220;28;125202;-86
2024/03/03 01:05:43;;;;;;;5.38;3.88;;;;;;;14.75;47.71;99775.38;4886287;28;124690;-87
2024/03/03 01:08:11;;;;;;;5.82;4.15;;;;;;;14.75;47.49;99770.03;4892971;28;115103;-86
2024/03/03 01:10:38;;;;;;;8.40;4.28;;;;;;;14.74;47.73;99773.66;4902641;28;115089;-86
2024/03/03 01:13:05;;;;;;;7.32;4.63;;;;;;;14.74;47.74;99779.00;4886779;28;122568;-85
2024/03/03 01:15:33;;;;;;;5.43;4.05;;;;;;;14.74;47.78;99779.00;4889485;28;124946;-86
2024/03/03 01:18:00;;;;;;;6.80;4.28;;;;;;;14.73;47.87;99782.63;4895329;28;115819;-86
2024/03/03 01:20:27;;;;;;;6.28;4.20;;;;;;;14.72;47.90;99783.59;4912475;28;114623;-86
2024/03/03 01:22:55;;;;;;;6.80;4.03;;;;;;;14.72;48.13;99780.94;4893514;28;125022;-86
2024/03/03 01:25:22;;;;;;;7.32;4.28;;;;;;;14.73;47.87;99782.63;4891423;28;124832;-87
2024/03/03 01:27:49;;;;;;;7.20;4.28;;;;;;;14.72;48.07;99786.28;4893642;28;114472;-87
2024/03/03 01:30:17;;;;;;;6.18;4.25;;;;;;;14.72;48.12;99791.59;4891627;28;115182;-85
2024/03/03 01:32:44;;;;;;;6.45;4.40;;;;;;;14.71;48.05;99790.75;4890276;28;125649;-84
2024/03/03 01:35:11;;;;;;;6.28;4.32;;;;;;;14.72;48.14;99792.44;4903367;28;123363;-84
2024/03/03 01:37:38;;;;;;;6.20;4.22;;;;;;;14.71;47.99;99784.56;4890589;28;112448;-86
2024/03/03 01:40:07;;;;;;;6.72;4.43;;;;;;;14.71;48.03;99789.88;4891953;28;113958;-87
2024/03/03 01:42:34;;;;;;;7.25;4.53;;;;;;;14.69;48.07;99789.16;4882832;28;124759;-85
2024/03/03 01:45:02;;;;;;;7.35;4.25;;;;;;;14.69;48.16;99791.84;4903440;28;125118;-86
2024/03/03 01:47:31;;;;;;;5.90;4.22;;;;;;;14.70;48.14;99793.53;4908224;28;115292;-85
2024/03/03 01:49:59;;;;;;;6.20;4.63;;;;;;;14.68;48.16;99795.47;4896655;28;116584;-87
2024/03/03 01:52:28;;;;;;;6.75;4.60;;;;;;;14.68;48.20;99790.16;4895593;28;124277;-87
2024/03/03 01:54:56;;;;;;;6.82;4.63;;;;;;;14.66;48.13;99792.09;4912084;28;124971;-86
2024/03/03 01:57:23;;;;;;;6.43;4.70;;;;;;;14.66;48.21;99792.09;4893051;28;115393;-88
2024/03/03 01:59:52;;;;;;;6.78;4.82;;;;;;;14.64;48.26;99788.72;4893786;28;113252;-86
2024/03/03 02:02:19;;;;;;;6.28;4.68;;;;;;;14.63;48.25;99792.31;4895787;28;124811;-84
2024/03/03 02:04:47;;;;;;;7.18;4.60;;;;;;;14.63;48.27;99789.66;4909172;28;125326;-87
2024/03/03 02:07:16;;;;;;;8.05;5.50;;;;;;;14.60;48.25;99786.28;4894694;28;113106;-87
2024/03/03 02:09:44;;;;;;;7.10;4.75;;;;;;;14.59;48.35;99781.06;4891515;28;115089;-87
2024/03/03 02:12:12;;;;;;;9.75;5.13;;;;;;;14.57;48.47;99778.50;4904273;28;125157;-87
2024/03/03 02:14:42;;;;;;;8.70;4.82;;;;;;;14.55;48.40;99775.09;4893615;28;125712;-87
2024/03/03 02:17:10;;;;;;;6.50;4.88;;;;;;;14.54;48.61;99778.72;4905784;28;116243;-85
2024/03/03 02:19:37;;;;;;;7.38;4.60;;;;;;;14.51;48.67;99784.28;4912551;28;115357;-86
2024/03/03 02:22:04;;;;;;;8.57;5.30;;;;;;;14.48;48.51;99797.84;4892967;28;124432;-86
2024/03/03 02:24:31;;;;;;;8.65;5.38;;;;;;;14.45;48.50;99786.56;4910839;28;122133;-86
2024/03/03 02:27:00;;;;;;;8.23;5.43;;;;;;;14.42;48.48;99782.34;4905973;28;115134;-84
2024/03/03 02:29:28;;;;;;;8.73;5.25;;;;;;;14.39;48.76;99787.91;4899786;28;114610;-86
2024/03/03 02:31:55;;;;;;;7.13;5.40;;;;;;;14.36;48.71;99791.66;4909741;28;124023;-87
2024/03/03 02:34:26;;;;;;;6.65;5.00;;;;;;;14.32;48.76;99784.88;4897738;28;122308;-87
2024/03/03 02:36:53;;;;;;;7.70;5.65;;;;;;;14.31;48.73;99788.50;4897938;28;113722;-87
2024/03/03 02:39:20;;;;;;;7.45;5.47;;;;;;;14.29;48.87;99792.25;4904418;28;114010;-87
2024/03/03 02:41:47;;;;;;;9.70;5.72;;;;;;;14.28;48.85;99785.22;4888754;28;122280;-85
2024/03/03 02:44:15;;;;;;;8.43;5.60;;;;;;;14.26;48.98;99785.38;4901031;28;124162;-87
2024/03/03 02:46:42;;;;;;;8.13;5.80;;;;;;;14.24;48.88;99791.75;4891732;28;114285;-85
2024/03/03 02:49:09;;;;;;;9.23;5.78;;;;;;;14.24;49.20;99792.63;4887927;28;115158;-86
2024/03/03 02:51:36;;;;;;;8.48;5.82;;;;;;;14.25;49.21;99788.16;4893448;28;124985;-86
2024/03/03 02:54:04;;;;;;;8.82;6.00;;;;;;;14.21;49.16;99783.03;4907059;28;124139;-85
2024/03/03 02:56:31;;;;;;;8.63;5.55;;;;;;;14.20;49.16;99792.03;4889515;28;114076;-86
2024/03/03 02:58:59;;;;;;;9.18;5.53;;;;;;;14.20;49.37;99781.38;4906050;28;113516;-85
2024/03/03 03:01:26;;;;;;;8.93;6.07;;;;;;;14.20;49.32;99786.69;4885575;28;124866;-87
2024/03/03 03:03:54;;;;;;;9.25;5.93;;;;;;;14.17;49.34;99792.25;4909995;28;123627;-85
2024/03/03 03:06:21;;;;;;;8.50;5.97;;;;;;;14.17;49.25;99800.22;4896793;28;115317;-87
2024/03/03 03:08:49;;;;;;;9.02;5.78;;;;;;;14.15;49.35;99790.69;4896459;28;115611;-85
2024/03/03 03:11:16;;;;;;;8.80;6.03;;;;;;;14.14;49.50;99803.13;4897276;28;123621;-86
2024/03/03 03:13:43;;;;;;;9.07;6.05;;;;;;;14.12;49.48;99794.41;4899782;28;124342;-86
2024/03/03 03:16:11;;;;;;;9.43;6.13;;;;;;;14.10;49.49;99793.69;4897353;28;115274;-87
2024/03/03 03:18:38;;;;;;;8.63;5.95;;;;;;;14.09;49.72;99799.97;4901118;28;113471;-86
2024/03/03 03:21:06;;;;;;;9.23;6.05;;;;;;;14.07;49.61;99791.28;4914984;28;123287;-84
2024/03/03 03:23:34;;;;;;;9.68;6.57;;;;;;;14.04;49.71;99791.50;4909530;28;124478;-82
2024/03/03 03:26:01;;;;;;;8.63;5.88;;;;;;;14.03;49.47;99795.09;4909816;28;113707;-87
2024/03/03 03:28:28;;;;;;;10.50;6.53;;;;;;;14.01;49.66;99797.03;4897231;28;114518;-84
2024/03/03 03:30:56;;;;;;;9.02;6.40;;;;;;;13.98;49.65;99786.66;4895607;28;123403;-85
2024/03/03 03:33:23;;;;;;;11.65;6.38;;;;;;;13.97;49.76;99795.59;4892146;28;125191;-86
2024/03/03 03:35:50;;;;;;;9.18;6.38;;;;;;;13.96;49.74;99791.25;4909527;28;113641;-87
2024/03/03 03:38:18;;;;;;;8.23;5.85;;;;;;;13.95;49.82;99792.19;4897180;28;113433;-85
2024/03/03 03:40:45;;;;;;;9.40;6.40;;;;;;;13.94;49.80;99790.50;4912921;28;123814;-85
2024/03/03 03:43:13;;;;;;;9.95;6.25;;;;;;;13.91;50.08;99790.72;4912913;28;125031;-87
2024/03/03 03:45:40;;;;;;;9.32;6.38;;;;;;;13.86;49.98;99787.56;4901643;28;112553;-86
2024/03/03 03:48:07;;;;;;;9.68;6.25;;;;;;;13.83;50.03;99784.16;4897580;28;113741;-85
2024/03/03 03:50:35;;;;;;;9.02;6.07;;;;;;;13.80;50.28;99784.38;4892853;28;123111;-86
2024/03/03 03:53:03;;;;;;;9.48;6.80;;;;;;;13.77;50.03;99779.31;4912997;28;122398;-85
2024/03/03 03:55:30;;;;;;;10.10;6.63;;;;;;;13.76;49.99;99774.09;4904540;28;115680;-86
2024/03/03 03:57:57;;;;;;;9.55;6.38;;;;;;;13.73;50.17;99780.53;4905631;28;112720;-89
2024/03/03 04:00:25;;;;;;;11.82;6.93;;;;;;;13.71;50.08;99790.44;4898000;28;124487;-88
2024/03/03 04:02:52;;;;;;;11.40;6.97;;;;;;;13.67;50.09;99791.59;4912578;28;123729;-85
2024/03/03 04:05:19;;;;;;;10.70;7.00;;;;;;;13.63;50.26;99792.81;4918923;28;114409;-87
2024/03/03 04:07:47;;;;;;;10.38;6.90;;;;;;;13.62;50.17;99799.09;4918772;28;112386;-87
2024/03/03 04:10:17;;;;;;;9.10;6.72;;;;;;;13.59;50.39;99807.31;4909010;28;124823;-88
2024/03/03 04:12:45;;;;;;;11.40;7.35;;;;;;;13.57;50.32;99798.59;4907027;28;121944;-88
2024/03/03 04:15:14;;;;;;;11.88;7.68;;;;;;;13.54;50.46;99798.81;4939723;28;112730;-89
2024/03/03 04:17:42;;;;;;;11.75;7.00;;;;;;;13.52;50.46;99800.72;4933136;28;112976;-88
2024/03/03 04:20:10;;;;;;;10.07;6.47;;;;;;;13.49;50.29;99795.66;4913400;28;122126;-87
2024/03/03 04:22:38;;;;;;;10.13;6.68;;;;;;;13.47;50.37;99794.91;4916460;28;123297;-89
2024/03/03 04:25:06;;;;;;;10.70;6.70;;;;;;;13.42;50.26;99806.72;4924589;28;114257;-90
2024/03/03 04:27:33;;;;;;;11.73;7.55;;;;;;;13.36;50.32;99801.88;4930052;28;115067;-85
2024/03/03 04:30:01;;;;;;;11.88;7.22;;;;;;;13.33;50.60;99802.09;4930178;28;123476;-89
2024/03/03 04:32:28;;;;;;;11.10;7.30;;;;;;;13.29;50.54;99807.72;4913749;28;123399;-87
2024/03/03 04:34:55;;;;;;;11.00;7.45;;;;;;;13.24;50.53;99808.03;4915626;28;115050;-87
2024/03/03 04:37:22;;;;;;;10.35;6.97;;;;;;;13.19;50.44;99815.53;4919231;28;114295;-87
2024/03/03 04:39:50;;;;;;;13.18;8.60;;;;;;;13.14;50.67;99818.50;4913225;28;126232;-87
2024/03/03 04:42:17;;;;;;;12.02;7.63;;;;;;;13.09;50.62;99825.97;4929062;28;124800;-87
2024/03/03 04:44:44;;;;;;;11.32;7.60;;;;;;;13.05;50.61;99833.31;4926867;28;115422;-86
2024/03/03 04:47:11;;;;;;;11.60;7.57;;;;;;;13.00;50.81;99838.09;4933994;28;117548;-88
2024/03/03 04:49:39;;;;;;;11.82;7.75;;;;;;;12.97;50.90;99822.38;4918183;28;124028;-87
2024/03/03 04:52:07;;;;;;;13.57;8.32;;;;;;;12.95;51.01;99837.56;4929651;28;124075;-86
2024/03/03 04:54:36;;;;;;;14.90;7.38;;;;;;;12.92;51.15;99835.16;4929918;28;114742;-88
2024/03/03 04:57:03;;;;;;;15.57;8.40;;;;;;;12.89;51.22;99835.38;4929263;28;114547;-86
2024/03/03 04:59:31;;;;;;;13.13;8.02;;;;;;;12.88;51.32;99844.28;4927355;28;123089;-87
2024/03/03 05:01:58;;;;;;;11.93;8.15;;;;;;;12.87;51.41;99850.56;4912164;28;123443;-86
2024/03/03 05:04:27;;;;;;;11.50;8.23;;;;;;;12.87;51.38;99853.22;4928829;28;114702;-85
2024/03/03 05:06:54;;;;;;;10.98;7.68;;;;;;;12.85;51.69;99861.31;4914699;28;115288;-88
2024/03/03 05:09:22;;;;;;;11.48;8.27;;;;;;;12.86;51.62;99856.84;4925947;28;124713;-88
2024/03/03 05:11:49;;;;;;;13.43;8.02;;;;;;;12.85;51.76;99860.47;4928054;28;124118;-87
2024/03/03 05:14:17;;;;;;;11.90;7.85;;;;;;;12.86;51.70;99867.47;4917013;28;113858;-87
2024/03/03 05:16:44;;;;;;;13.35;8.00;;;;;;;12.86;51.73;99878.09;4908984;28;113522;-86
2024/03/03 05:19:11;;;;;;;11.23;7.75;;;;;;;12.87;51.91;99879.81;4932079;28;123906;-87
2024/03/03 05:21:39;;;;;;;12.40;8.23;;;;;;;12.87;51.97;99879.81;4926437;28;123122;-87
2024/03/03 05:24:06;;;;;;;13.50;8.07;;;;;;;12.89;52.11;99883.19;4927536;28;115002;-86
2024/03/03 05:26:33;;;;;;;13.27;7.75;;;;;;;12.92;52.09;99876.81;4927079;28;113426;-88
2024/03/03 05:29:03;;;;;;;12.52;7.40;;;;;;;12.94;52.22;99881.06;4931815;28;127365;-87
2024/03/03 05:31:37;;;;;;;12.15;7.85;;;;;;;12.97;52.19;99883.50;4934966;28;122911;-86
2024/03/03 05:34:04;;;;;;;11.68;8.10;;;;;;;13.00;52.12;99875.31;4928544;28;114521;-88
2024/03/03 05:36:33;;;;;;;11.25;7.95;;;;;;;13.03;52.16;99879.56;4928204;28;114215;-85
2024/03/03 05:39:00;;;;;;;13.88;8.75;;;;;;;13.08;52.15;99889.88;4917234;28;123737;-87
2024/03/03 05:41:28;;;;;;;10.75;6.88;;;;;;;13.09;51.95;99895.09;4915476;28;123283;-87
2024/03/03 05:43:55;;;;;;;10.93;6.72;;;;;;;13.14;52.14;99905.38;4930483;28;113763;-87
2024/03/03 05:46:23;;;;;;;10.90;6.15;;;;;;;13.16;52.18;99900.81;4932630;28;114832;-88
2024/03/03 05:48:50;;;;;;;11.77;6.80;;;;;;;13.18;52.11;99909.53;4923663;28;125045;-87
2024/03/03 05:51:17;;;;;;;10.18;6.50;;;;;;;13.19;52.04;99897.94;4933916;28;122972;-87
2024/03/03 05:53:45;;;;;;;10.18;6.35;;;;;;;13.21;51.92;99906.66;4927048;28;114344;-85
2024/03/03 05:56:16;;;;;;;11.82;6.68;;;;;;;13.24;52.22;99903.75;4927326;28;113060;-86
2024/03/03 05:58:45;;;;;;;10.50;6.82;;;;;;;13.25;52.17;99906.31;4924767;28;124653;-87
2024/03/03 06:01:12;;;;;;;11.13;6.43;;;;;;;13.28;52.05;99918.56;4917544;28;124844;-88
2024/03/03 06:03:41;;;;;;;9.80;6.55;;;;;;;13.29;52.15;99922.91;4928430;28;113305;-88
2024/03/03 06:06:10;;;;;;;11.40;6.57;;;;;;;13.32;52.17;99921.88;4910161;28;113125;-88
2024/03/03 06:08:45;;;;;;;10.88;6.22;;;;;;;13.32;52.18;99917.41;4912008;28;122592;-88
2024/03/03 06:11:15;;;;;;;9.65;6.40;;;;;;;13.34;52.03;99915.50;4908292;28;123438;-86
2024/03/03 06:13:43;;;;;;;9.60;6.15;;;;;;;13.35;52.28;99906.53;4908667;28;115638;-87
2024/03/03 06:16:11;;;;;;;9.73;6.65;;;;;;;13.38;52.29;99916.97;4920073;28;114521;-86
2024/03/03 06:18:38;;;;;;;11.57;6.43;;;;;;;13.39;52.00;99912.50;4923509;28;124435;-87
2024/03/03 06:21:07;;;;;;;11.25;5.70;;;;;;;13.39;52.17;99918.69;4925660;28;124180;-87
2024/03/03 06:23:36;;;;;;;13.57;5.22;;;;;;;13.38;52.11;99932.94;4927349;28;114504;-88
2024/03/03 06:26:04;;;;;;;9.95;5.70;;;;;;;13.38;52.16;99911.66;4922861;28;115547;-88
2024/03/03 06:28:31;;;;;;;10.43;5.97;;;;;;;13.40;51.99;99922.19;4918729;28;122885;-86
2024/03/03 06:31:01;;;;;;;11.98;5.57;;;;;;;13.38;52.07;99911.66;4915708;28;121528;-87
2024/03/03 06:33:28;;;;;;;11.00;5.85;;;;;;;13.39;51.96;99918.69;4913802;28;113920;-86
2024/03/03 06:35:55;;;;;;;9.55;5.97;;;;;;;13.37;51.95;99917.94;4929612;28;114676;-88
2024/03/03 06:38:23;;;;;;;9.80;5.65;;;;;;;13.37;51.91;99923.25;4923906;28;123756;-87
2024/03/03 06:40:50;;;;;;;11.15;5.82;;;;;;;13.36;52.17;99934.84;4909910;28;122050;-88
2024/03/03 06:43:17;;;;;;;11.48;5.68;;;;;;;13.36;52.13;99939.31;4911021;28;114529;-88
2024/03/03 06:45:45;;;;;;;11.13;5.25;;;;;;;13.36;52.13;99950.81;4916442;28;113522;-89
2024/03/03 06:48:12;;;;;;;8.50;5.28;;;;;;;13.35;52.02;99962.38;4929472;28;124134;-88
2024/03/03 06:50:40;;;;;;;11.43;5.57;;;;;;;13.34;52.12;99967.84;4916871;28;123043;-89
2024/03/03 06:53:07;;;;;;;11.65;5.45;;;;;;;13.33;52.08;99972.28;4931022;28;113327;-88
2024/03/03 06:55:34;;;;;;;10.57;5.70;;;;;;;13.32;52.19;99957.31;4914441;28;113826;-88
2024/03/03 06:58:02;;;;;;;10.18;5.30;;;;;;;13.34;52.17;99952.72;4929187;28;123552;-87
2024/03/03 07:00:29;;;;;;;9.68;5.57;;;;;;;13.35;52.45;99949.09;4914249;28;123292;-87
2024/03/03 07:03:04;;;;;;;11.35;5.55;;;;;;;13.39;52.23;99949.72;4928935;28;115251;-88
2024/03/03 07:05:31;;;;;;;10.02;5.35;;;;;;;13.40;52.35;99952.28;4914014;28;113615;-88
2024/03/03 07:07:59;;;;;;;10.10;5.22;;;;;;;13.43;52.20;99946.75;4923222;28;125756;-88
2024/03/03 07:10:31;;;;;;;10.70;5.47;;;;;;;13.47;52.41;99951.84;4926492;28;122468;-89
2024/03/03 07:12:59;;;;;;;9.98;5.05;;;;;;;13.48;52.34;99958.88;4915399;28;114790;-89
2024/03/03 07:15:26;;;;;;;11.07;6.00;;;;;;;13.50;52.16;99967.59;4933138;28;114786;-87
2024/03/03 07:17:53;;;;;;;9.50;5.63;;;;;;;13.53;52.39;99972.69;4913300;28;122903;-86
2024/03/03 07:20:20;;;;;;;11.35;5.97;;;;;;;13.53;52.36;99970.03;4907837;28;123566;-85
2024/03/03 07:22:48;;;;;;;10.80;5.60;;;;;;;13.55;52.39;99976.09;4909742;28;113076;-85
2024/03/03 07:25:15;;;;;;;10.00;5.55;;;;;;;13.58;52.31;99975.88;4912327;28;113406;-87
2024/03/03 07:27:42;;;;;;;10.45;5.53;;;;;;;13.60;52.42;99979.28;4896965;28;124066;-84
2024/03/03 07:30:11;;;;;;;11.88;6.00;;;;;;;13.63;52.29;99973.72;4900581;28;123936;-84
2024/03/03 07:32:40;;;;;;;10.57;5.50;;;;;;;13.65;52.34;99977.13;4909420;28;114508;-82
2024/03/03 07:35:08;;;;;;;10.98;5.38;;;;;;;13.67;52.37;99969.88;4912819;28;113165;-82
2024/03/03 07:37:35;;;;;;;11.07;5.88;;;;;;;13.71;52.15;99971.38;4912127;28;123531;-85
2024/03/03 07:40:06;;;;;;;11.48;6.18;;;;;;;13.73;52.39;99966.81;4891088;28;122932;-85
2024/03/03 07:42:33;;;;;;;11.13;5.80;;;;;;;13.77;52.36;99968.28;4900906;28;114253;-84
2024/03/03 07:45:01;;;;;;;10.68;6.00;;;;;;;13.82;52.41;99960.81;4923651;28;115398;-85
2024/03/03 07:47:28;;;;;;;11.85;6.28;;;;;;;13.87;52.58;99959.63;4911691;28;124011;-88
2024/03/03 07:49:55;;;;;;;13.02;6.93;;;;;;;13.90;52.59;99954.06;4914485;28;122582;-88
2024/03/03 07:52:22;;;;;;;15.25;6.78;;;;;;;13.93;52.56;99944.03;4910336;28;113849;-87
2024/03/03 07:54:50;;;;;;;13.20;6.93;;;;;;;13.97;52.59;99942.00;4915834;28;113623;-86
2024/03/03 07:57:17;;;;;;;13.43;7.45;;;;;;;13.98;52.71;99930.41;4894437;28;122292;-84
2024/03/03 07:59:45;;;;;;;12.05;6.60;;;;;;;14.01;52.71;99930.16;4892320;28;122289;-84
2024/03/03 08:02:12;;;;;;;13.88;6.82;;;;;;;14.04;52.84;99929.94;4894636;28;115806;-85
2024/03/03 08:04:39;;;;;;;13.02;6.93;;;;;;;14.08;52.89;99934.06;4911668;28;116225;-86
2024/03/03 08:07:07;;;;;;;11.85;6.63;;;;;;;14.12;52.76;99938.19;4904443;28;123959;-85
2024/03/03 08:09:34;;;;;;;11.95;6.57;;;;;;;14.16;52.89;99954.78;4903201;28;124256;-84
2024/03/03 08:12:02;;;;;;;11.00;6.57;;;;;;;14.18;52.73;99975.03;4902867;28;114468;-85
2024/03/03 08:14:32;;;;;;;11.98;6.32;;;;;;;14.20;52.82;99983.78;4912372;28;113570;-85
2024/03/03 08:16:59;;;;;;;15.07;7.50;;;;;;;14.18;52.76;99980.38;4897892;28;125369;-85
2024/03/03 08:19:27;;;;;;;12.50;6.60;;;;;;;14.18;52.86;99975.03;4895239;28;122994;-85
2024/03/03 08:21:56;;;;;;;12.20;6.63;;;;;;;14.17;52.80;99970.66;4899194;28;116617;-85
2024/03/03 08:24:24;;;;;;;12.15;5.88;;;;;;;14.18;52.86;99972.38;4895693;28;115455;-85
2024/03/03 08:26:51;;;;;;;8.93;5.03;;;;;;;14.23;53.05;99971.19;4887046;28;125161;-83
2024/03/03 08:29:19;;;;;;;8.98;5.00;;;;;;;14.27;53.04;99975.31;4898067;28;126313;-84
2024/03/03 08:31:47;;;;;;;11.77;5.95;;;;;;;14.31;52.92;99979.44;4913361;28;112974;-86
2024/03/03 08:34:14;;;;;;;10.93;5.97;;;;;;;14.35;53.10;99991.56;4894770;28;115271;-85
2024/03/03 08:36:42;;;;;;;11.82;6.20;;;;;;;14.38;52.78;100002.00;4896214;28;123324;-83
2024/03/03 08:39:12;;;;;;;10.48;5.95;;;;;;;14.43;52.91;100014.97;4897403;28;123022;-85
2024/03/03 08:41:43;;;;;;;14.07;6.07;;;;;;;14.45;52.92;100019.22;4906918;28;113865;-86
2024/03/03 08:44:10;;;;;;;12.25;5.75;;;;;;;14.50;52.83;100024.19;4897157;28;115623;-85
2024/03/03 08:46:39;;;;;;;11.98;5.85;;;;;;;14.54;52.90;100018.56;4897520;28;98996;-85
2024/03/03 08:49:06;;;;;;;11.18;5.93;;;;;;;14.59;52.82;100019.06;4898736;28;124858;-85
2024/03/03 08:51:39;;;;;;;13.02;6.55;;;;;;;14.66;52.71;100026.63;4892128;28;116162;-85
2024/03/03 08:54:07;;;;;;;12.90;6.80;;;;;;;14.74;52.80;100016.22;4906540;28;115483;-84
2024/03/03 08:56:34;;;;;;;11.10;6.45;;;;;;;14.81;52.89;100014.78;4908764;28;125171;-86
2024/03/03 08:59:02;;;;;;;14.13;7.15;;;;;;;14.87;52.62;100014.31;4911387;28;123850;-84
2024/03/03 09:01:30;;;;;;;14.55;7.50;;;;;;;14.94;52.71;100012.88;4885892;28;115459;-84
2024/03/03 09:03:57;;;;;;;16.60;7.45;;;;;;;15.01;52.66;100020.41;4911283;28;113947;-84
2024/03/03 09:06:25;;;;;;;14.50;6.50;;;;;;;15.08;52.63;100021.63;4892935;28;126325;-84
2024/03/03 09:08:52;;;;;;;14.00;7.43;;;;;;;15.12;52.49;100025.75;4906137;28;123849;-86
2024/03/03 09:11:19;;;;;;;13.52;7.07;;;;;;;15.17;52.35;100031.59;4892938;28;115961;-85
2024/03/03 09:13:47;;;;;;;14.70;7.55;;;;;;;15.22;52.38;100024.09;4882691;28;115325;-85
2024/03/03 09:16:14;;;;;;;14.05;7.55;;;;;;;15.28;52.28;100012.94;4907720;28;125931;-83
2024/03/03 09:18:41;;;;;;;16.70;7.53;;;;;;;15.34;52.31;100023.13;4889420;28;123359;-84
2024/03/03 09:21:09;;;;;;;14.80;7.28;;;;;;;15.40;52.38;100020.97;4887173;28;113931;-84
2024/03/03 09:23:38;;;;;;;15.77;7.63;;;;;;;15.48;52.26;100016.72;4905961;28;115430;-84
2024/03/03 09:26:05;;;;;;;14.27;7.60;;;;;;;15.56;52.43;100016.13;4895962;28;123478;-85
2024/03/03 09:28:32;;;;;;;17.48;7.45;;;;;;;15.64;52.20;100013.69;4911048;28;123725;-84
2024/03/03 09:31:00;;;;;;;12.82;7.32;;;;;;;15.74;52.15;100025.34;4888716;28;114078;-83
2024/03/03 09:33:29;;;;;;;14.25;7.13;;;;;;;15.84;52.17;100024.59;4905555;28;114980;-85
2024/03/03 09:35:56;;;;;;;13.63;7.47;;;;;;;15.93;52.53;100029.22;4889828;28;125170;-83
2024/03/03 09:38:24;;;;;;;14.40;7.22;;;;;;;16.04;52.14;100026.53;4903234;28;125780;-82
2024/03/03 09:40:51;;;;;;;14.13;8.00;;;;;;;16.14;52.04;100032.81;4899260;28;114187;-83
2024/03/03 09:43:26;;;;;;;14.32;6.88;;;;;;;16.25;52.13;100029.25;4884084;28;114171;-83
2024/03/03 09:45:53;;;;;;;14.03;6.37;;;;;;;16.36;51.75;100036.41;4887474;28;123159;-84
2024/03/03 09:48:22;;;;;;;13.25;7.03;;;;;;;16.44;51.69;100028.59;4909022;28;123168;-86
2024/03/03 09:50:51;;;;;;;15.70;6.30;;;;;;;16.52;51.53;100030.66;4907952;28;116051;-83
2024/03/03 09:53:20;;;;;;;13.55;7.15;;;;;;;16.61;51.41;100034.38;4895311;28;115713;-84
2024/03/03 09:55:47;;;;;;;11.55;6.38;;;;;;;16.71;51.50;100035.31;4910622;28;124129;-84
2024/03/03 09:58:15;;;;;;;13.07;6.50;;;;;;;16.80;51.42;100031.00;4890761;28;125097;-85
2024/03/03 10:00:44;;;;;;;12.63;7.28;;;;;;;16.87;51.40;100025.03;4904276;28;114000;-84
2024/03/03 10:03:12;;;;;;;15.95;7.60;;;;;;;16.92;50.75;100033.53;4901789;28;112686;-84
2024/03/03 10:05:40;;;;;;;14.30;6.82;;;;;;;17.01;51.00;100025.69;4887463;28;125154;-84
2024/03/03 10:08:10;;;;;;;14.38;6.78;;;;;;;17.06;50.90;100023.47;4883942;28;124901;-83
2024/03/03 10:10:42;;;;;;;13.15;6.60;;;;;;;17.09;50.77;100018.72;4903800;28;112641;-85
2024/03/03 10:13:15;;;;;;;11.60;6.30;;;;;;;17.13;50.52;100020.13;4905626;28;114326;-85
2024/03/03 10:15:45;;;;;;;13.32;6.70;;;;;;;17.16;50.48;100018.16;4903792;28;124629;-84
2024/03/03 10:18:12;;;;;;;12.90;6.53;;;;;;;17.20;50.43;100020.47;4888816;28;123159;-86
2024/03/03 10:20:42;;;;;;;10.48;5.95;;;;;;;17.25;50.34;100018.25;4898444;28;113550;-86
2024/03/03 10:23:22;;;;;;;11.35;6.63;;;;;;;17.26;50.28;100019.09;4899875;28;115339;-84
2024/03/03 10:25:54;;;;;;;10.60;5.90;;;;;;;17.31;50.13;100020.38;4907073;28;123863;-87
2024/03/03 10:28:21;;;;;;;11.15;6.28;;;;;;;17.36;50.15;100030.69;4900336;28;123247;-84
2024/03/03 10:30:49;;;;;;;13.43;6.43;;;;;;;17.41;50.11;100027.63;4892971;28;114490;-84
2024/03/03 10:33:17;;;;;;;11.63;6.45;;;;;;;17.45;49.96;100023.69;4900721;28;114285;-83
2024/03/03 10:35:44;;;;;;;12.27;6.00;;;;;;;17.48;49.98;100024.28;4907315;28;126949;-85
2024/03/03 10:38:13;;;;;;;11.02;6.28;;;;;;;17.54;49.62;100022.91;4905814;28;123998;-84
2024/03/03 10:40:42;;;;;;;11.52;6.22;;;;;;;17.58;49.69;100018.97;4905465;28;115046;-85
2024/03/03 10:43:10;;;;;;;11.30;6.45;;;;;;;17.62;49.38;100020.38;4905277;28;114318;-85
2024/03/03 10:45:38;;;;;;;13.73;6.80;;;;;;;17.64;49.40;100013.06;4897521;28;124505;-83
2024/03/03 10:48:05;;;;;;;12.10;6.10;;;;;;;17.68;49.28;100014.47;4898072;28;124585;-83
2024/03/03 10:50:32;;;;;;;12.77;6.13;;;;;;;17.73;49.15;100015.94;4900222;28;113087;-85
2024/03/03 10:53:00;;;;;;;11.80;6.53;;;;;;;17.76;49.16;100012.97;4885228;28;112920;-85
2024/03/03 10:55:28;;;;;;;13.27;6.38;;;;;;;17.79;49.13;100010.03;4921054;28;124927;-83
2024/03/03 10:58:01;;;;;;;11.60;6.40;;;;;;;17.81;48.96;100008.03;4893274;28;125028;-84
2024/03/03 11:00:29;;;;;;;8.88;5.43;;;;;;;17.85;48.95;100001.47;4902343;28;115157;-85
2024/03/03 11:02:59;;;;;;;9.00;5.60;;;;;;;17.91;48.83;99998.22;4888984;28;113595;-86
2024/03/03 11:05:27;;;;;;;10.30;5.43;;;;;;;17.97;48.68;99997.69;4888774;28;123146;-85
2024/03/03 11:07:59;;;;;;;13.30;8.82;;;;;;;18.02;48.21;99989.22;4905664;28;125405;-85
2024/03/03 11:10:27;;;;;;;11.20;7.40;;;;;;;18.04;48.14;99987.25;4890135;28;115356;-84
2024/03/03 11:12:57;;;;;;;16.13;7.55;;;;;;;18.05;48.20;99984.44;4909235;28;113947;-84
2024/03/03 11:15:25;;;;;;;11.93;8.20;;;;;;;18.11;47.98;99998.28;4906913;28;123392;-84
2024/03/03 11:17:59;;;;;;;13.80;8.18;;;;;;;18.20;48.37;100008.19;4897062;28;125745;-84
2024/03/03 11:20:35;;;;;;;11.05;7.20;;;;;;;18.29;48.22;100001.97;4911275;28;115683;-83
2024/03/03 11:23:15;;;;;;;12.32;7.07;;;;;;;18.38;48.13;100001.13;4901737;28;115898;-87